createdAt,value
2018-09-08T00:02:20.582Z,10.40
2018-09-08T00:04:49.173Z,10.50
2018-09-08T00:07:22.987Z,10.50
2018-09-08T00:09:51.692Z,10.50
2018-09-08T00:12:20.282Z,10.60
2018-09-08T00:14:48.017Z,10.60
2018-09-08T00:17:22.122Z,10.50
2018-09-08T00:19:55.895Z,10.50
2018-09-08T00:22:29.815Z,10.40
2018-09-08T00:25:03.745Z,10.40
2018-09-08T00:27:38.125Z,10.40
2018-09-08T00:30:10.137Z,10.30
2018-09-08T00:32:40.091Z,10.30
2018-09-08T00:35:08.665Z,10.20
2018-09-08T00:37:37.373Z,10.30
2018-09-08T00:40:05.893Z,10.20
2018-09-08T00:42:34.885Z,10.30
2018-09-08T00:45:03.475Z,10.30
2018-09-08T00:47:31.948Z,10.30
2018-09-08T00:50:00.507Z,10.30
2018-09-08T00:52:29.092Z,10.20
2018-09-08T00:54:57.609Z,10.30
2018-09-08T00:57:26.063Z,10.30
2018-09-08T00:59:54.700Z,10.20
2018-09-08T01:02:23.209Z,10.20
2018-09-08T01:04:51.675Z,10.20
2018-09-08T01:07:25.459Z,10.20
2018-09-08T01:09:54.033Z,10.20
2018-09-08T01:12:22.581Z,10.20
2018-09-08T01:14:51.099Z,10.20
2018-09-08T01:17:19.696Z,10.20
2018-09-08T01:19:48.241Z,10.30
2018-09-08T01:22:17.437Z,10.20
2018-09-08T01:24:46.061Z,10.20
2018-09-08T01:27:14.628Z,10.20
2018-09-08T01:29:43.113Z,10.20
2018-09-08T01:32:11.615Z,10.20
2018-09-08T01:34:40.121Z,10.30
2018-09-08T01:37:08.728Z,10.20
2018-09-08T01:39:37.260Z,10.20
2018-09-08T01:42:05.793Z,10.20
2018-09-08T01:44:34.321Z,10.20
2018-09-08T01:47:02.857Z,10.20
2018-09-08T01:49:31.401Z,10.20
2018-09-08T01:52:00.000Z,10.20
2018-09-08T01:54:28.478Z,10.20
2018-09-08T01:56:57.000Z,10.10
2018-09-08T01:59:25.475Z,10.10
2018-09-08T02:01:53.996Z,10.10
2018-09-08T02:04:22.543Z,10.10
2018-09-08T02:06:51.053Z,10.10
2018-09-08T02:09:19.561Z,10.20
2018-09-08T02:11:48.031Z,10.20
2018-09-08T02:14:16.555Z,10.20
2018-09-08T02:16:45.038Z,10.20
2018-09-08T02:19:13.636Z,10.20
2018-09-08T02:21:42.168Z,10.20
2018-09-08T02:24:10.672Z,10.20
2018-09-08T02:26:39.276Z,10.20
2018-09-08T02:29:07.880Z,10.20
2018-09-08T02:31:36.413Z,10.30
2018-09-08T02:34:04.932Z,10.30
2018-09-08T02:36:33.392Z,10.30
2018-09-08T02:39:01.895Z,10.40
2018-09-08T02:41:30.385Z,10.40
2018-09-08T02:43:58.925Z,10.40
2018-09-08T02:46:27.409Z,10.40
2018-09-08T02:48:55.953Z,10.40
2018-09-08T02:51:23.360Z,10.40
2018-09-08T02:53:50.764Z,10.40
2018-09-08T02:56:18.169Z,10.40
2018-09-08T02:58:45.536Z,10.30
2018-09-08T03:01:12.911Z,10.30
2018-09-08T03:03:40.313Z,10.40
2018-09-08T03:06:07.681Z,10.30
2018-09-08T03:08:35.083Z,10.40
2018-09-08T03:11:02.499Z,10.40
2018-09-08T03:13:29.912Z,10.40
2018-09-08T03:15:57.337Z,10.40
2018-09-08T03:18:24.752Z,10.40
2018-09-08T03:20:52.291Z,10.50
2018-09-08T03:23:19.693Z,10.40
2018-09-08T03:25:47.103Z,10.40
2018-09-08T03:28:14.519Z,10.40
2018-09-08T03:30:41.923Z,10.50
2018-09-08T03:33:09.374Z,10.50
2018-09-08T03:35:36.785Z,10.50
2018-09-08T03:38:04.200Z,10.60
2018-09-08T03:40:31.633Z,10.60
2018-09-08T03:42:59.075Z,10.60
2018-09-08T03:45:26.477Z,10.60
2018-09-08T03:47:53.900Z,10.70
2018-09-08T03:50:21.287Z,10.70
2018-09-08T03:52:48.721Z,10.70
2018-09-08T03:55:16.134Z,10.80
2018-09-08T03:57:43.496Z,10.90
2018-09-08T04:00:10.912Z,11.00
2018-09-08T04:02:39.372Z,11.00
2018-09-08T04:05:07.977Z,11.10
2018-09-08T04:07:36.493Z,11.20
2018-09-08T04:10:05.411Z,11.20
2018-09-08T04:12:33.962Z,11.30
2018-09-08T04:15:02.491Z,11.30
2018-09-08T04:17:31.034Z,11.30
2018-09-08T04:19:59.567Z,11.30
2018-09-08T04:22:32.386Z,11.40
2018-09-08T04:25:00.915Z,11.40
2018-09-08T04:27:29.407Z,11.40
2018-09-08T04:29:57.965Z,11.40
2018-09-08T04:32:26.504Z,11.40
2018-09-08T04:34:55.268Z,11.50
2018-09-08T04:37:23.809Z,11.50
2018-09-08T04:39:52.332Z,11.50
2018-09-08T04:42:20.873Z,11.50
2018-09-08T04:44:49.636Z,11.50
2018-09-08T04:47:18.184Z,11.50
2018-09-08T04:49:46.696Z,11.50
2018-09-08T04:52:15.336Z,11.50
2018-09-08T04:54:43.812Z,11.50
2018-09-08T04:57:12.276Z,11.50
2018-09-08T04:59:40.828Z,11.60
2018-09-08T05:02:09.308Z,11.60
2018-09-08T05:04:37.830Z,11.60
2018-09-08T05:07:06.389Z,11.60
2018-09-08T05:09:34.851Z,11.70
2018-09-08T05:12:03.712Z,11.70
2018-09-08T05:14:32.210Z,11.70
2018-09-08T05:17:00.732Z,11.80
2018-09-08T05:19:29.313Z,11.80
2018-09-08T05:21:57.865Z,11.80
2018-09-08T05:24:26.412Z,11.80
2018-09-08T05:26:54.921Z,11.80
2018-09-08T05:29:23.608Z,11.80
2018-09-08T05:31:52.084Z,11.80
2018-09-08T05:34:20.565Z,11.80
2018-09-08T05:36:49.088Z,11.90
2018-09-08T05:39:17.580Z,11.90
2018-09-08T05:41:46.085Z,11.90
2018-09-08T05:44:14.629Z,11.90
2018-09-08T05:46:43.125Z,12.00
2018-09-08T05:49:11.723Z,12.00
2018-09-08T05:51:40.217Z,12.10
2018-09-08T05:54:08.801Z,12.10
2018-09-08T05:56:37.378Z,12.10
2018-09-08T05:59:05.920Z,12.20
2018-09-08T06:01:34.464Z,12.20
2018-09-08T06:04:02.967Z,12.10
2018-09-08T06:06:31.508Z,12.10
2018-09-08T06:09:00.056Z,12.10
2018-09-08T06:11:28.555Z,12.10
2018-09-08T06:13:57.037Z,12.10
2018-09-08T06:16:25.558Z,12.10
2018-09-08T06:18:54.104Z,12.10
2018-09-08T06:21:22.635Z,12.20
2018-09-08T06:23:51.161Z,12.40
2018-09-08T06:26:19.721Z,12.50
2018-09-08T06:28:48.268Z,12.70
2018-09-08T06:31:16.747Z,12.80
2018-09-08T06:33:45.294Z,13.00
2018-09-08T06:36:13.824Z,13.10
2018-09-08T06:38:42.422Z,13.10
2018-09-08T06:41:11.002Z,13.10
2018-09-08T06:43:39.557Z,13.10
2018-09-08T06:46:08.260Z,13.00
2018-09-08T06:48:36.808Z,13.00
2018-09-08T06:51:05.744Z,13.00
2018-09-08T06:53:34.261Z,13.00
2018-09-08T06:56:02.812Z,13.00
2018-09-08T06:58:31.424Z,13.00
2018-09-08T07:00:59.967Z,13.10
2018-09-08T07:03:28.846Z,13.20
2018-09-08T07:05:57.271Z,13.20
2018-09-08T07:08:25.819Z,13.30
2018-09-08T07:10:54.354Z,13.40
2018-09-08T07:13:22.873Z,13.40
2018-09-08T07:15:51.408Z,13.50
2018-09-08T07:18:19.945Z,13.60
2018-09-08T07:20:48.483Z,13.70
2018-09-08T07:23:17.008Z,13.80
2018-09-08T07:25:45.532Z,13.80
2018-09-08T07:28:14.043Z,13.90
2018-09-08T07:30:42.597Z,14.00
2018-09-08T07:33:11.184Z,14.00
2018-09-08T07:35:39.790Z,14.10
2018-09-08T07:38:08.317Z,14.10
2018-09-08T07:40:36.847Z,14.00
2018-09-08T07:43:05.413Z,14.10
2018-09-08T07:45:33.920Z,14.20
2018-09-08T07:48:02.444Z,14.20
2018-09-08T07:50:30.945Z,14.30
2018-09-08T07:52:59.448Z,14.30
2018-09-08T07:55:28.089Z,14.40
2018-09-08T07:57:56.659Z,14.50
2018-09-08T08:00:25.292Z,14.60
2018-09-08T08:02:53.846Z,14.70
2018-09-08T08:05:22.364Z,14.80
2018-09-08T08:07:50.899Z,14.80
2018-09-08T08:10:19.429Z,15.00
2018-09-08T08:12:47.969Z,15.00
2018-09-08T08:15:16.501Z,15.10
2018-09-08T08:17:45.061Z,15.20
2018-09-08T08:20:13.613Z,15.30
2018-09-08T08:22:42.114Z,15.40
2018-09-08T08:25:10.680Z,15.50
2018-09-08T08:27:39.248Z,15.60
2018-09-08T08:30:07.802Z,15.70
2018-09-08T08:32:36.346Z,15.70
2018-09-08T08:35:05.074Z,15.80
2018-09-08T08:37:33.656Z,15.90
2018-09-08T08:40:02.164Z,16.00
2018-09-08T08:42:30.732Z,16.00
2018-09-08T08:44:59.261Z,16.10
2018-09-08T08:47:27.829Z,16.10
2018-09-08T08:52:09.863Z,16.10
2018-09-08T08:54:42.279Z,16.00
2018-09-08T08:57:10.796Z,16.20
2018-09-08T08:59:39.393Z,16.20
2018-09-08T09:02:07.894Z,16.40
2018-09-08T09:04:36.446Z,16.50
2018-09-08T09:07:05.201Z,16.40
2018-09-08T09:09:33.587Z,16.40
2018-09-08T09:12:02.170Z,16.40
2018-09-08T09:14:30.667Z,16.40
2018-09-08T09:16:59.226Z,16.50
2018-09-08T09:19:40.880Z,16.60
2018-09-08T09:22:21.903Z,16.70
2018-09-08T09:24:55.675Z,16.90
2018-09-08T09:27:24.684Z,17.00
2018-09-08T09:29:53.494Z,17.00
2018-09-08T09:32:22.100Z,17.00
2018-09-08T09:34:50.648Z,17.10
2018-09-08T09:37:19.346Z,17.20
2018-09-08T09:39:48.310Z,17.30
2018-09-08T09:42:16.872Z,17.50
2018-09-08T09:44:45.404Z,17.70
2018-09-08T09:47:14.177Z,17.80
2018-09-08T09:49:42.816Z,17.90
2018-09-08T09:52:11.342Z,18.00
2018-09-08T09:54:39.832Z,18.00
2018-09-08T09:57:08.351Z,18.10
2018-09-08T09:59:36.885Z,18.10
2018-09-08T10:02:11.009Z,18.10
2018-09-08T10:04:39.621Z,18.10
2018-09-08T10:07:09.801Z,18.20
2018-09-08T10:09:40.565Z,18.20
2018-09-08T10:12:09.098Z,18.20
2018-09-08T10:14:37.613Z,18.00
2018-09-08T10:17:06.076Z,18.00
2018-09-08T10:19:34.583Z,18.00
2018-09-08T10:22:03.107Z,18.00
2018-09-08T10:24:31.583Z,18.00
2018-09-08T10:27:00.101Z,17.90
2018-09-08T10:29:28.563Z,17.80
2018-09-08T10:31:57.087Z,17.80
2018-09-08T10:34:25.566Z,17.90
2018-09-08T10:36:54.115Z,17.90
2018-09-08T10:39:22.643Z,18.00
2018-09-08T10:41:51.238Z,18.10
2018-09-08T10:44:20.505Z,18.20
2018-09-08T10:46:49.032Z,18.30
2018-09-08T10:49:17.471Z,18.30
2018-09-08T10:51:51.032Z,18.40
2018-09-08T10:54:19.512Z,18.30
2018-09-08T10:56:48.062Z,18.20
2018-09-08T10:59:16.519Z,18.00
2018-09-08T11:01:45.082Z,17.90
2018-09-08T11:04:13.564Z,18.20
2018-09-08T11:06:42.105Z,18.50
2018-09-08T11:09:10.554Z,18.60
2018-09-08T11:11:39.033Z,18.60
2018-09-08T11:14:07.668Z,18.70
2018-09-08T11:19:29.394Z,18.90
2018-09-08T11:21:58.017Z,19.10
2018-09-08T11:24:26.870Z,19.20
2018-09-08T11:26:55.437Z,19.30
2018-09-08T11:29:23.975Z,19.20
2018-09-08T11:31:52.475Z,19.10
2018-09-08T11:34:21.023Z,19.10
2018-09-08T11:36:49.533Z,19.20
2018-09-08T11:39:18.145Z,19.20
2018-09-08T11:41:47.014Z,19.20
2018-09-08T11:44:16.442Z,19.00
2018-09-08T11:46:44.944Z,18.90
2018-09-08T11:49:13.501Z,18.70
2018-09-08T11:51:42.236Z,18.70
2018-09-08T11:54:10.745Z,18.60
2018-09-08T11:56:39.434Z,18.60
2018-09-08T11:59:08.818Z,18.70
2018-09-08T12:01:37.489Z,18.80
2018-09-08T12:04:06.400Z,19.00
2018-09-08T12:06:34.952Z,19.00
2018-09-08T12:09:04.662Z,19.00
2018-09-08T12:11:33.226Z,18.90
2018-09-08T12:14:01.861Z,18.80
2018-09-08T12:16:30.371Z,18.90
2018-09-08T12:18:58.982Z,19.00
2018-09-08T12:21:27.473Z,19.10
2018-09-08T12:23:56.346Z,19.30
2018-09-08T12:26:25.250Z,19.40
2018-09-08T12:28:54.395Z,19.40
2018-09-08T12:31:22.919Z,19.50
2018-09-08T12:33:53.331Z,19.50
2018-09-08T12:36:22.014Z,19.50
2018-09-08T12:38:50.705Z,19.40
2018-09-08T12:41:19.243Z,19.30
2018-09-08T12:43:47.826Z,19.40
2018-09-08T12:46:16.454Z,19.40
2018-09-08T12:48:45.031Z,19.40
2018-09-08T12:51:13.659Z,19.40
2018-09-08T12:53:42.198Z,19.50
2018-09-08T12:56:10.758Z,19.60
2018-09-08T12:58:39.365Z,19.70
2018-09-08T13:06:15.647Z,19.90
2018-09-08T13:08:44.180Z,19.80
2018-09-08T13:11:14.124Z,19.80
2018-09-08T13:13:44.201Z,19.80
2018-09-08T13:16:12.771Z,19.70
2018-09-08T13:18:41.320Z,19.40
2018-09-08T13:21:09.833Z,19.40
2018-09-08T13:23:38.452Z,19.50
2018-09-08T13:26:07.007Z,19.70
2018-09-08T13:28:35.539Z,19.80
2018-09-08T13:31:04.088Z,19.90
2018-09-08T13:33:32.620Z,20.00
2018-09-08T13:36:01.127Z,20.10
2018-09-08T13:38:29.822Z,20.10
2018-09-08T13:40:58.324Z,20.30
2018-09-08T13:43:26.856Z,20.30
2018-09-08T13:45:55.552Z,20.30
2018-09-08T13:48:24.084Z,20.30
2018-09-08T13:50:52.636Z,20.50
2018-09-08T13:53:21.931Z,20.70
2018-09-08T13:55:50.487Z,20.80
2018-09-08T13:58:20.524Z,20.90
2018-09-08T14:00:50.400Z,20.90
2018-09-08T14:03:21.620Z,20.70
2018-09-08T14:05:51.682Z,20.60
2018-09-08T14:08:21.964Z,20.60
2018-09-08T14:10:52.898Z,20.70
2018-09-08T14:13:25.281Z,20.80
2018-09-08T14:15:55.801Z,20.80
2018-09-08T14:18:26.416Z,20.60
2018-09-08T14:20:56.836Z,20.60
2018-09-08T14:23:25.525Z,20.30
2018-09-08T14:25:54.048Z,20.00
2018-09-08T14:28:22.631Z,19.70
2018-09-08T14:30:51.145Z,19.70
2018-09-08T14:33:19.974Z,19.80
2018-09-08T14:35:48.625Z,20.20
2018-09-08T14:38:20.363Z,20.60
2018-09-08T14:40:49.086Z,21.00
2018-09-08T14:43:17.843Z,21.20
2018-09-08T14:45:46.474Z,21.20
2018-09-08T14:48:15.123Z,21.00
2018-09-08T14:50:43.800Z,20.60
2018-09-08T14:53:13.315Z,20.20
2018-09-08T14:55:43.022Z,19.80
2018-09-08T14:58:11.589Z,19.50
2018-09-08T15:00:40.132Z,19.40
2018-09-08T15:03:08.649Z,19.20
2018-09-08T15:05:37.817Z,19.10
2018-09-08T15:08:06.784Z,18.90
2018-09-08T15:10:35.567Z,18.80
2018-09-08T15:13:04.328Z,18.80
2018-09-08T15:15:33.121Z,18.80
2018-09-08T15:18:01.934Z,18.80
2018-09-08T15:20:30.815Z,19.00
2018-09-08T15:22:59.592Z,19.20
2018-09-08T15:25:28.535Z,19.30
2018-09-08T15:27:57.297Z,19.30
2018-09-08T15:30:26.063Z,19.10
2018-09-08T15:32:54.964Z,18.90
2018-09-08T15:35:23.615Z,18.70
2018-09-08T15:37:53.172Z,18.60
2018-09-08T15:43:02.358Z,18.40
2018-09-08T15:45:34.975Z,18.20
2018-09-08T15:48:08.884Z,18.10
2018-09-08T15:50:41.017Z,17.90
2018-09-08T15:53:11.743Z,17.80
2018-09-08T15:55:40.666Z,17.80
2018-09-08T15:58:09.301Z,17.80
2018-09-08T16:00:38.030Z,17.70
2018-09-08T16:03:08.303Z,17.70
2018-09-08T16:05:37.052Z,17.80
2018-09-08T16:08:06.235Z,17.80
2018-09-08T16:10:36.836Z,17.80
2018-09-08T16:13:06.074Z,17.80
2018-09-08T16:15:34.853Z,17.80
2018-09-08T16:18:03.640Z,17.70
2018-09-08T16:20:32.257Z,17.70
2018-09-08T16:23:00.828Z,17.70
2018-09-08T16:25:29.500Z,17.60
2018-09-08T16:27:58.186Z,17.60
2018-09-08T16:30:26.769Z,17.50
2018-09-08T16:32:55.291Z,17.50
2018-09-08T16:35:23.847Z,17.50
2018-09-08T16:37:52.401Z,17.40
2018-09-08T16:40:20.921Z,17.40
2018-09-08T16:42:49.500Z,17.40
2018-09-08T16:45:18.018Z,17.30
2018-09-08T16:47:46.551Z,17.20
2018-09-08T16:50:15.149Z,17.20
2018-09-08T16:52:43.707Z,17.10
2018-09-08T16:55:12.196Z,17.10
2018-09-08T16:57:40.764Z,17.10
2018-09-08T17:00:09.394Z,17.00
2018-09-08T17:02:37.880Z,17.00
2018-09-08T17:05:06.605Z,16.90
2018-09-08T17:07:35.093Z,16.90
2018-09-08T17:10:03.699Z,16.90
2018-09-08T17:12:32.208Z,16.80
2018-09-08T17:15:00.784Z,16.80
2018-09-08T17:17:29.315Z,16.70
2018-09-08T17:19:57.863Z,16.70
2018-09-08T17:22:26.400Z,16.60
2018-09-08T17:24:54.926Z,16.60
2018-09-08T17:27:23.625Z,16.50
2018-09-08T17:29:52.285Z,16.50
2018-09-08T17:32:20.857Z,16.40
2018-09-08T17:34:49.401Z,16.40
2018-09-08T17:37:17.952Z,16.40
2018-09-08T17:39:46.517Z,16.30
2018-09-08T17:42:16.586Z,16.30
2018-09-08T17:44:45.180Z,16.20
2018-09-08T17:47:13.818Z,16.20
2018-09-08T17:49:42.363Z,16.10
2018-09-08T17:52:10.977Z,16.10
2018-09-08T17:54:39.479Z,16.00
2018-09-08T17:57:08.031Z,15.90
2018-09-08T17:59:36.644Z,15.90
2018-09-08T18:02:07.384Z,15.80
2018-09-08T18:04:35.972Z,15.70
2018-09-08T18:07:04.921Z,15.70
2018-09-08T18:09:33.577Z,15.60
2018-09-08T18:12:02.119Z,15.60
2018-09-08T18:14:30.692Z,15.50
2018-09-08T18:16:59.192Z,15.50
2018-09-08T18:19:27.752Z,15.50
2018-09-08T18:21:56.284Z,15.40
2018-09-08T18:24:34.350Z,15.40
2018-09-08T18:27:05.802Z,15.30
2018-09-08T18:29:44.018Z,15.30
2018-09-08T18:35:25.964Z,15.20
2018-09-08T18:37:55.533Z,15.20
2018-09-08T18:40:24.156Z,15.20
2018-09-08T18:42:52.761Z,15.20
2018-09-08T18:45:30.643Z,15.20
2018-09-08T18:48:00.687Z,15.20
2018-09-08T18:50:35.599Z,15.20
2018-09-08T19:01:41.009Z,15.10
2018-09-08T19:04:50.393Z,15.10
2018-09-08T19:07:37.601Z,15.10
2018-09-08T19:10:30.331Z,15.00
2018-09-08T19:13:12.856Z,15.00
2018-09-08T19:16:10.382Z,14.90
2018-09-08T19:19:10.191Z,14.90
2018-09-08T19:24:56.141Z,14.80
2018-09-08T19:27:44.805Z,14.80
2018-09-08T19:33:19.038Z,14.80
2018-09-08T19:36:06.469Z,14.80
2018-09-08T19:38:48.367Z,14.70
2018-09-08T19:41:17.086Z,14.70
2018-09-08T19:43:46.705Z,14.70
2018-09-08T19:46:21.273Z,14.70
2018-09-08T19:48:50.622Z,14.60
2018-09-08T19:51:25.284Z,14.60
2018-09-08T19:54:08.483Z,14.60
2018-09-08T19:56:53.508Z,14.60
2018-09-08T19:59:37.247Z,14.60
2018-09-08T20:02:15.972Z,14.50
2018-09-08T20:04:59.996Z,14.50
2018-09-08T20:10:42.153Z,14.30
2018-09-08T20:13:17.041Z,14.20
2018-09-08T20:15:56.436Z,14.20
2018-09-08T20:18:38.242Z,14.20
2018-09-08T20:21:19.701Z,14.20
2018-09-08T20:23:55.565Z,14.10
2018-09-08T20:26:31.195Z,14.10
2018-09-08T20:29:06.081Z,14.10
2018-09-08T20:31:47.821Z,14.10
2018-09-08T20:34:22.072Z,14.20
2018-09-08T20:37:01.899Z,14.20
2018-09-08T20:39:33.583Z,14.20
2018-09-08T20:42:07.057Z,14.20
2018-09-08T20:44:45.857Z,14.20
2018-09-08T20:47:20.366Z,14.20
2018-09-08T20:49:53.164Z,14.20
2018-09-08T20:52:29.269Z,14.20
2018-09-08T20:55:03.457Z,14.20
2018-09-08T20:57:38.176Z,14.20
2018-09-08T21:00:18.948Z,14.20
2018-09-08T21:02:57.182Z,14.10
2018-09-08T21:05:31.175Z,14.10
2018-09-08T21:08:02.437Z,14.10
2018-09-08T21:10:36.726Z,14.00
2018-09-08T21:13:08.670Z,14.00
2018-09-08T21:15:38.515Z,14.00
2018-09-08T21:18:11.390Z,14.00
2018-09-08T21:20:44.930Z,14.00
2018-09-08T21:23:13.590Z,14.00
2018-09-08T21:25:42.124Z,14.00
2018-09-08T21:28:10.685Z,14.00
2018-09-08T21:30:39.231Z,14.00
2018-09-08T21:33:07.764Z,14.00
2018-09-08T21:35:36.311Z,14.10
2018-09-08T21:38:04.972Z,14.00
2018-09-08T21:40:33.496Z,14.00
2018-09-08T21:43:02.035Z,14.00
2018-09-08T21:45:30.584Z,14.00
2018-09-08T21:47:59.165Z,14.00
2018-09-08T21:50:27.659Z,14.00
2018-09-08T21:52:56.236Z,14.00
2018-09-08T21:55:24.776Z,13.90
2018-09-08T21:57:53.276Z,13.80
2018-09-08T22:00:21.821Z,13.80
2018-09-08T22:02:50.364Z,13.80
2018-09-08T22:05:18.904Z,13.80
2018-09-08T22:07:47.406Z,13.70
2018-09-08T22:10:15.967Z,13.70
2018-09-08T22:12:44.520Z,13.70
2018-09-08T22:15:13.057Z,13.70
2018-09-08T22:17:41.570Z,13.60
2018-09-08T22:20:10.179Z,13.50
2018-09-08T22:22:38.739Z,13.50
2018-09-08T22:25:07.375Z,13.40
2018-09-08T22:27:35.892Z,13.30
2018-09-08T22:30:04.496Z,13.20
2018-09-08T22:32:32.991Z,13.10
2018-09-08T22:35:01.555Z,13.00
2018-09-08T22:37:30.091Z,13.00
2018-09-08T22:39:58.640Z,12.90
2018-09-08T22:42:27.135Z,12.90
2018-09-08T22:44:55.677Z,12.90
2018-09-08T22:47:24.227Z,12.90
2018-09-08T22:49:52.760Z,12.80
2018-09-08T22:52:21.302Z,12.80
2018-09-08T22:54:49.861Z,12.80
2018-09-08T22:57:18.368Z,12.80
2018-09-08T22:59:46.970Z,12.70
2018-09-08T23:02:15.452Z,12.80
2018-09-08T23:04:44.007Z,12.70
2018-09-08T23:07:12.552Z,12.70
2018-09-08T23:09:41.219Z,12.60
2018-09-08T23:12:09.788Z,12.60
2018-09-08T23:14:38.316Z,12.50
2018-09-08T23:17:07.008Z,12.50
2018-09-08T23:19:35.556Z,12.50
2018-09-08T23:22:04.083Z,12.50
2018-09-08T23:24:32.637Z,12.40
2018-09-08T23:27:01.169Z,12.40
2018-09-08T23:29:29.712Z,12.40
2018-09-08T23:31:58.263Z,12.40
2018-09-08T23:34:26.788Z,12.40
2018-09-08T23:36:55.344Z,12.40
2018-09-08T23:39:23.859Z,12.40
2018-09-08T23:41:52.420Z,12.40
2018-09-08T23:44:20.931Z,12.50
2018-09-08T23:46:49.509Z,12.50
2018-09-08T23:49:18.092Z,12.50
2018-09-08T23:51:46.634Z,12.60
2018-09-08T23:54:15.184Z,12.60
2018-09-08T23:56:43.675Z,12.70
2018-09-08T23:59:12.221Z,12.70
